Terminal Aerodrome Forecast
Issued by NWS Pittsburgh, PA

Current Version | Previous Version | Graphics & Text | Print | Product List | Glossary On
Versions: 1 2 3 4 5 6 7 8 9 10 11 12 13 14 15 16 17 18 19 20 21 22 23
980
FTUS41 KPBZ 210237 AAA
TAFPIT
TAF AMD
KPIT 210237Z 2103/2206 21012KT P6SM BKN050
     FM210400 20008KT 6SM -RA VCTS BKN025CB
     FM210900 24008KT P6SM BKN015
     FM211700 28012G18KT P6SM BKN035=

USA.gov is the U.S. government's official web portal to all federal, state and local government web resources and services.